Time;durP1;ratioP1;P1;durP2;ratioP2;P2;SDS_P1;SDS_P2;PMS_P1;PMS_P2;Temp;Humidity;BMP_temperature;BMP_pressure;BME280_temperature;BME280_humidity;BME280_pressure;Samples;Min_cycle;Max_cycle;Signal;HPM_P1;HPM_P2
2024/03/23 00:01:19;;;;;;;29.95;17.83;;;;;;;;;;6105248;23;20030;-79
2024/03/23 00:03:45;;;;;;;30.48;17.65;;;;;;;;;;6103386;23;20065;-80
2024/03/23 00:06:12;;;;;;;30.63;17.05;;;;;;;;;;6080077;23;20057;-80
2024/03/23 00:08:38;;;;;;;32.17;17.98;;;;;;;;;;6081402;23;20050;-80
2024/03/23 00:11:11;;;;;;;27.60;16.45;;;;;;;;;;6060451;23;20017;-80
2024/03/23 00:13:37;;;;;;;27.38;16.90;;;;;;;;;;6107567;23;20073;-78
2024/03/23 00:16:04;;;;;;;28.40;16.73;;;;;;;;;;6106340;23;20010;-80
2024/03/23 00:18:30;;;;;;;28.33;15.48;;;;;;;;;;6056463;23;20340;-79
2024/03/23 00:20:57;;;;;;;26.90;16.58;;;;;;;;;;6102589;23;20479;-78
2024/03/23 00:23:23;;;;;;;27.52;16.35;;;;;;;;;;6055259;23;20019;-79
2024/03/23 00:25:49;;;;;;;27.08;15.48;;;;;;;;;;6057783;23;20010;-80
2024/03/23 00:28:16;;;;;;;24.95;14.73;;;;;;;;;;6079828;23;20033;-78
2024/03/23 00:30:42;;;;;;;24.75;14.32;;;;;;;;;;6081762;23;20329;-79
2024/03/23 00:33:08;;;;;;;25.60;15.18;;;;;;;;;;6058988;23;20018;-78
2024/03/23 00:35:34;;;;;;;26.98;14.73;;;;;;;;;;6079447;23;20373;-80
2024/03/23 00:38:00;;;;;;;23.63;14.00;;;;;;;;;;6105343;23;20053;-79
2024/03/23 00:40:26;;;;;;;19.95;12.77;;;;;;;;;;6080408;23;20014;-80
2024/03/23 00:42:52;;;;;;;23.98;13.77;;;;;;;;;;6057393;23;20014;-79
2024/03/23 00:45:18;;;;;;;22.88;13.57;;;;;;;;;;6081623;23;20078;-80
2024/03/23 00:47:44;;;;;;;20.55;12.55;;;;;;;;;;6056465;23;20021;-80
2024/03/23 00:50:10;;;;;;;23.85;13.63;;;;;;;;;;6057947;23;20011;-80
2024/03/23 00:52:36;;;;;;;20.67;12.75;;;;;;;;;;6081382;23;20054;-80
2024/03/23 00:55:04;;;;;;;21.00;12.93;;;;;;;;;;6104960;23;20010;-79
2024/03/23 00:57:29;;;;;;;22.75;13.13;;;;;;;;;;6104214;23;20034;-79
2024/03/23 00:59:55;;;;;;;23.05;13.07;;;;;;;;;;6057281;23;20332;-80
2024/03/23 01:02:20;;;;;;;20.20;12.32;;;;;;;;;;6104677;23;20007;-80
2024/03/23 01:04:46;;;;;;;17.13;10.63;;;;;;;;;;6077732;23;20037;-79
2024/03/23 01:07:12;;;;;;;19.10;11.95;;;;;;;;;;6054269;23;20014;-78
2024/03/23 01:09:38;;;;;;;20.65;12.05;;;;;;;;;;6104138;23;20011;-78
2024/03/23 01:12:04;;;;;;;21.95;12.82;;;;;;;;;;6103269;23;20037;-81
2024/03/23 01:14:30;;;;;;;21.23;11.93;;;;;;;;;;6080708;23;20007;-79
2024/03/23 01:16:55;;;;;;;19.90;11.85;;;;;;;;;;6079278;23;20010;-78
2024/03/23 01:19:21;;;;;;;19.60;12.25;;;;;;;;;;6057501;23;20025;-80
2024/03/23 01:21:46;;;;;;;23.55;13.10;;;;;;;;;;6103565;23;20014;-80
2024/03/23 01:24:12;;;;;;;20.63;12.88;;;;;;;;;;6081299;23;20356;-79
2024/03/23 01:26:38;;;;;;;19.65;11.55;;;;;;;;;;6080439;23;20011;-79
2024/03/23 01:29:03;;;;;;;20.20;12.23;;;;;;;;;;6055389;23;20444;-80
2024/03/23 01:31:29;;;;;;;24.88;14.20;;;;;;;;;;6080085;23;20010;-79
2024/03/23 01:33:55;;;;;;;18.38;11.45;;;;;;;;;;6063459;23;20006;-80
2024/03/23 01:36:21;;;;;;;20.25;11.52;;;;;;;;;;6114235;23;20006;-78
2024/03/23 01:38:46;;;;;;;19.02;10.05;;;;;;;;;;6065949;23;20034;-79
2024/03/23 01:41:12;;;;;;;18.17;11.48;;;;;;;;;;6094590;23;20018;-79
2024/03/23 01:43:37;;;;;;;16.73;9.10;;;;;;;;;;6143342;23;20006;-79
2024/03/23 01:46:03;;;;;;;14.55;9.10;;;;;;;;;;6113247;23;20036;-81
2024/03/23 01:48:28;;;;;;;15.90;8.30;;;;;;;;;;6089112;23;20030;-79
2024/03/23 01:50:54;;;;;;;14.10;8.38;;;;;;;;;;6113671;23;20009;-80
2024/03/23 01:53:21;;;;;;;15.27;8.25;;;;;;;;;;6093818;23;20033;-81
2024/03/23 01:55:47;;;;;;;13.50;7.35;;;;;;;;;;6091999;23;20041;-80
2024/03/23 01:58:13;;;;;;;16.55;8.50;;;;;;;;;;6091983;23;20041;-79
2024/03/23 02:00:39;;;;;;;14.10;7.55;;;;;;;;;;6145611;23;20009;-79
2024/03/23 02:03:21;;;;;;;13.95;7.60;;;;;;;;;;6142797;23;20101;-78
2024/03/23 02:05:47;;;;;;;12.73;7.28;;;;;;;;;;6131856;23;20017;-80
2024/03/23 02:08:13;;;;;;;14.10;8.05;;;;;;;;;;6129698;23;20014;-79
2024/03/23 02:10:41;;;;;;;14.65;7.22;;;;;;;;;;6126318;23;20006;-79
2024/03/23 02:13:06;;;;;;;14.85;7.55;;;;;;;;;;6083001;23;20011;-80
2024/03/23 02:15:34;;;;;;;14.13;8.60;;;;;;;;;;6128902;23;20005;-80
2024/03/23 02:18:02;;;;;;;13.33;7.97;;;;;;;;;;6130051;23;20092;-80
2024/03/23 02:20:28;;;;;;;14.88;6.88;;;;;;;;;;6130401;23;20069;-80
2024/03/23 02:22:54;;;;;;;14.85;7.03;;;;;;;;;;6078125;23;20013;-79
2024/03/23 02:25:20;;;;;;;14.85;6.47;;;;;;;;;;6080587;23;20014;-80
2024/03/23 02:27:46;;;;;;;15.75;7.00;;;;;;;;;;6080186;23;20010;-80
2024/03/23 02:30:12;;;;;;;15.77;6.20;;;;;;;;;;6134607;23;20099;-80
2024/03/23 02:32:37;;;;;;;12.98;5.88;;;;;;;;;;6085519;23;20017;-79
2024/03/23 02:35:04;;;;;;;15.20;5.95;;;;;;;;;;6085146;23;20009;-79
2024/03/23 02:37:31;;;;;;;11.98;5.53;;;;;;;;;;6083250;23;20025;-79
2024/03/23 02:39:57;;;;;;;14.13;5.80;;;;;;;;;;6105828;23;20076;-79
2024/03/23 02:42:22;;;;;;;9.55;5.28;;;;;;;;;;6136751;23;20014;-79
2024/03/23 02:44:48;;;;;;;15.88;6.25;;;;;;;;;;6105751;23;20069;-80
2024/03/23 02:47:14;;;;;;;11.82;5.70;;;;;;;;;;6111198;23;20021;-78
2024/03/23 02:49:40;;;;;;;13.70;5.32;;;;;;;;;;6082586;23;20006;-80
2024/03/23 02:52:05;;;;;;;13.35;6.18;;;;;;;;;;6133541;23;20029;-79
2024/03/23 02:54:31;;;;;;;13.27;5.65;;;;;;;;;;6082686;23;20017;-79
2024/03/23 02:56:59;;;;;;;15.43;5.50;;;;;;;;;;6113152;23;20075;-80
2024/03/23 02:59:26;;;;;;;12.05;5.93;;;;;;;;;;6131376;23;20005;-81
2024/03/23 03:01:51;;;;;;;11.07;5.85;;;;;;;;;;6109816;23;20452;-78
2024/03/23 03:04:18;;;;;;;12.77;5.70;;;;;;;;;;6131097;23;20403;-78
2024/03/23 03:06:47;;;;;;;12.55;5.63;;;;;;;;;;6106736;23;20014;-80
2024/03/23 03:09:13;;;;;;;14.88;5.22;;;;;;;;;;6083129;23;20008;-80
2024/03/23 03:11:38;;;;;;;10.98;5.00;;;;;;;;;;6105634;23;20038;-79
2024/03/23 03:14:04;;;;;;;15.52;5.57;;;;;;;;;;6130971;23;20002;-80
2024/03/23 03:16:29;;;;;;;14.80;4.95;;;;;;;;;;6109815;23;20006;-80
2024/03/23 03:18:55;;;;;;;10.23;4.95;;;;;;;;;;6108234;23;20344;-79
2024/03/23 03:21:21;;;;;;;9.15;4.13;;;;;;;;;;6130204;23;20064;-80
2024/03/23 03:23:50;;;;;;;9.70;4.22;;;;;;;;;;6128164;23;20010;-79
2024/03/23 03:26:16;;;;;;;11.52;4.15;;;;;;;;;;6104556;23;20010;-79
2024/03/23 03:28:48;;;;;;;8.93;3.92;;;;;;;;;;6107745;23;20017;-79
2024/03/23 03:31:18;;;;;;;9.65;4.18;;;;;;;;;;6109683;23;20013;-78
2024/03/23 03:33:44;;;;;;;11.32;4.43;;;;;;;;;;6108390;23;20025;-80
2024/03/23 03:36:12;;;;;;;11.20;4.30;;;;;;;;;;6110839;23;20029;-78
2024/03/23 03:38:38;;;;;;;8.40;3.42;;;;;;;;;;6114082;23;20065;-80
2024/03/23 03:41:04;;;;;;;10.05;3.70;;;;;;;;;;6111477;23;20014;-81
2024/03/23 03:43:29;;;;;;;10.15;4.45;;;;;;;;;;6112602;23;20018;-79
2024/03/23 03:45:56;;;;;;;9.35;3.22;;;;;;;;;;6109776;23;20021;-80
2024/03/23 03:48:25;;;;;;;8.48;3.58;;;;;;;;;;6138758;23;20010;-79
2024/03/23 03:50:52;;;;;;;9.48;3.80;;;;;;;;;;6111481;23;20462;-79
2024/03/23 03:53:18;;;;;;;9.77;3.20;;;;;;;;;;6108078;23;20006;-79
2024/03/23 03:55:44;;;;;;;8.23;2.70;;;;;;;;;;6111309;23;20010;-79
2024/03/23 03:58:09;;;;;;;5.45;2.88;;;;;;;;;;6111416;23;20037;-80
2024/03/23 04:00:35;;;;;;;5.57;2.60;;;;;;;;;;6115880;23;20022;-79
2024/03/23 04:03:01;;;;;;;10.48;3.50;;;;;;;;;;6152541;23;20002;-79
2024/03/23 04:05:27;;;;;;;8.35;3.22;;;;;;;;;;6153200;23;20037;-79
2024/03/23 04:07:52;;;;;;;7.03;3.10;;;;;;;;;;6103585;23;20014;-79
2024/03/23 04:10:20;;;;;;;9.05;3.25;;;;;;;;;;6102109;23;20071;-79
2024/03/23 04:12:45;;;;;;;11.13;3.88;;;;;;;;;;6115236;23;20006;-78
2024/03/23 04:15:11;;;;;;;8.93;3.53;;;;;;;;;;6141344;23;20002;-78
2024/03/23 04:17:37;;;;;;;9.75;3.40;;;;;;;;;;6136334;23;20010;-79
2024/03/23 04:20:04;;;;;;;8.82;3.35;;;;;;;;;;6110187;23;20010;-79
2024/03/23 04:22:30;;;;;;;8.73;3.35;;;;;;;;;;6136456;23;20070;-80
2024/03/23 04:24:57;;;;;;;10.73;3.10;;;;;;;;;;6082802;23;20016;-79
2024/03/23 04:27:23;;;;;;;8.55;3.35;;;;;;;;;;6131636;23;20013;-79
2024/03/23 04:29:53;;;;;;;7.55;3.10;;;;;;;;;;6133030;23;20034;-80
2024/03/23 04:32:19;;;;;;;7.45;2.97;;;;;;;;;;6108439;23;20012;-80
2024/03/23 04:34:45;;;;;;;11.63;3.40;;;;;;;;;;6085833;23;20092;-81
2024/03/23 04:37:12;;;;;;;10.40;3.57;;;;;;;;;;6112216;23;20049;-81
2024/03/23 04:39:38;;;;;;;9.52;3.40;;;;;;;;;;6117756;23;20025;-80
2024/03/23 04:42:04;;;;;;;8.77;3.20;;;;;;;;;;6144030;23;20006;-80
2024/03/23 04:44:30;;;;;;;7.03;3.03;;;;;;;;;;6144915;23;20024;-80
2024/03/23 04:46:56;;;;;;;8.60;3.00;;;;;;;;;;6094623;23;20010;-80
2024/03/23 04:49:24;;;;;;;6.70;2.83;;;;;;;;;;6118916;23;20036;-80
2024/03/23 04:51:49;;;;;;;6.03;2.80;;;;;;;;;;6144155;23;20029;-78
2024/03/23 04:54:15;;;;;;;6.90;2.92;;;;;;;;;;6108618;23;20006;-79
2024/03/23 04:56:42;;;;;;;9.27;2.97;;;;;;;;;;6108998;23;20234;-79
2024/03/23 04:59:08;;;;;;;9.40;3.40;;;;;;;;;;6111916;23;20006;-79
2024/03/23 05:01:34;;;;;;;6.50;3.15;;;;;;;;;;6135230;23;20002;-79
2024/03/23 05:04:02;;;;;;;7.23;2.80;;;;;;;;;;6139673;23;20006;-79
2024/03/23 05:06:28;;;;;;;8.32;2.78;;;;;;;;;;6092677;23;20010;-80
2024/03/23 05:08:53;;;;;;;8.27;3.03;;;;;;;;;;6137291;23;20006;-78
2024/03/23 05:11:20;;;;;;;10.13;3.30;;;;;;;;;;6140606;23;20006;-79
2024/03/23 05:13:46;;;;;;;6.57;3.15;;;;;;;;;;6090354;23;20010;-81
2024/03/23 05:16:13;;;;;;;10.63;3.90;;;;;;;;;;6090890;23;20016;-79
2024/03/23 05:18:39;;;;;;;12.52;3.60;;;;;;;;;;6088053;23;20006;-78
2024/03/23 05:21:07;;;;;;;8.25;3.25;;;;;;;;;;6114925;23;20021;-79
2024/03/23 05:23:33;;;;;;;8.82;3.55;;;;;;;;;;6119584;23;20057;-81
2024/03/23 05:25:58;;;;;;;7.38;3.50;;;;;;;;;;6139898;23;20022;-80
2024/03/23 05:28:24;;;;;;;8.45;3.60;;;;;;;;;;6090289;23;20451;-80
2024/03/23 05:30:50;;;;;;;8.52;3.65;;;;;;;;;;6088380;23;20005;-81
2024/03/23 05:33:17;;;;;;;7.90;3.58;;;;;;;;;;6135664;23;20009;-80
2024/03/23 05:35:43;;;;;;;8.05;3.55;;;;;;;;;;6110703;23;20002;-79
2024/03/23 05:38:08;;;;;;;8.18;3.75;;;;;;;;;;6111004;23;20017;-79
2024/03/23 05:40:37;;;;;;;7.40;3.47;;;;;;;;;;6085665;23;20028;-81
2024/03/23 05:43:03;;;;;;;7.40;3.15;;;;;;;;;;6087059;23;20017;-80
2024/03/23 05:45:29;;;;;;;8.70;3.40;;;;;;;;;;6084388;23;20394;-82
2024/03/23 05:47:57;;;;;;;7.07;3.15;;;;;;;;;;6136080;23;20037;-80
2024/03/23 05:50:24;;;;;;;7.43;3.58;;;;;;;;;;6133843;23;20006;-79
2024/03/23 05:52:53;;;;;;;8.60;3.15;;;;;;;;;;6086206;23;20016;-80
2024/03/23 05:55:18;;;;;;;;;;;;;;;;;;6113119;23;20005;-79
2024/03/23 05:57:45;;;;;;;13.35;3.60;;;;;;;;;;6087738;23;19904;-80
2024/03/23 06:00:15;;;;;;;10.77;3.17;;;;;;;;;;6161505;23;20012;-79
2024/03/23 06:02:44;;;;;;;8.25;3.83;;;;;;;;;;6134347;23;20010;-81
2024/03/23 06:05:10;;;;;;;7.30;3.43;;;;;;;;;;6132816;23;20016;-79
2024/03/23 06:07:36;;;;;;;7.30;3.25;;;;;;;;;;6087839;23;20018;-79
2024/03/23 06:10:01;;;;;;;8.98;3.28;;;;;;;;;;6090238;23;20436;-81
2024/03/23 06:12:27;;;;;;;10.75;3.83;;;;;;;;;;6114539;23;20336;-79
2024/03/23 06:14:53;;;;;;;9.40;3.97;;;;;;;;;;6084450;23;20017;-80
2024/03/23 06:17:18;;;;;;;10.35;3.63;;;;;;;;;;6088160;23;20014;-81
2024/03/23 06:19:44;;;;;;;5.85;3.00;;;;;;;;;;6107288;23;20013;-80
2024/03/23 06:22:11;;;;;;;7.55;3.75;;;;;;;;;;6105979;23;20440;-80
2024/03/23 06:24:37;;;;;;;10.93;3.15;;;;;;;;;;6133163;23;20348;-80
2024/03/23 06:27:04;;;;;;;11.43;3.80;;;;;;;;;;6110272;23;20036;-81
2024/03/23 06:29:30;;;;;;;9.52;3.40;;;;;;;;;;6086794;23;20448;-81
2024/03/23 06:31:56;;;;;;;9.38;3.35;;;;;;;;;;6088296;23;20021;-81
2024/03/23 06:34:22;;;;;;;7.47;3.28;;;;;;;;;;6092585;23;20033;-80
2024/03/23 06:36:49;;;;;;;7.20;3.20;;;;;;;;;;6125930;23;20065;-80
2024/03/23 06:39:18;;;;;;;8.50;4.80;;;;;;;;;;6125407;23;20243;-80
2024/03/23 06:41:52;;;;;;;7.85;2.92;;;;;;;;;;6123744;23;20101;-79
2024/03/23 06:44:18;;;;;;;9.77;4.13;;;;;;;;;;6113653;23;20021;-79
2024/03/23 06:46:44;;;;;;;12.88;3.90;;;;;;;;;;6134916;23;20005;-80
2024/03/23 06:49:11;;;;;;;9.30;3.20;;;;;;;;;;6130837;23;20479;-79
2024/03/23 06:51:37;;;;;;;8.52;3.40;;;;;;;;;;6105885;23;20002;-78
2024/03/23 06:54:04;;;;;;;8.18;3.17;;;;;;;;;;6104551;23;20115;-79
2024/03/23 06:56:30;;;;;;;11.10;4.18;;;;;;;;;;6127840;23;20009;-79
2024/03/23 06:58:56;;;;;;;10.88;3.90;;;;;;;;;;6105797;23;20030;-79
2024/03/23 07:01:21;;;;;;;10.13;3.90;;;;;;;;;;6133006;23;20010;-79
2024/03/23 07:03:47;;;;;;;9.88;4.55;;;;;;;;;;6087645;23;20587;-81
2024/03/23 07:06:14;;;;;;;10.32;3.97;;;;;;;;;;6117553;23;19993;-79
2024/03/23 07:08:39;;;;;;;7.97;3.58;;;;;;;;;;6089438;23;20407;-79
2024/03/23 07:11:05;;;;;;;13.45;4.05;;;;;;;;;;6088354;23;20060;-80
2024/03/23 07:13:31;;;;;;;11.32;4.10;;;;;;;;;;6135172;23;20033;-79
2024/03/23 07:15:59;;;;;;;9.38;4.10;;;;;;;;;;6088623;23;20010;-80
2024/03/23 07:18:28;;;;;;;11.07;4.05;;;;;;;;;;6111810;23;20014;-79
2024/03/23 07:20:58;;;;;;;7.38;4.05;;;;;;;;;;6139258;23;20077;-80
2024/03/23 07:23:26;;;;;;;11.73;4.57;;;;;;;;;;6090726;23;20014;-80
2024/03/23 07:25:56;;;;;;;10.90;3.78;;;;;;;;;;6091204;23;20443;-81
2024/03/23 07:28:26;;;;;;;7.60;4.03;;;;;;;;;;6091353;23;20018;-81
2024/03/23 07:31:21;;;;;;;10.93;3.70;;;;;;;;;;6116146;23;20030;-80
2024/03/23 07:33:48;;;;;;;11.95;4.18;;;;;;;;;;6113446;23;20010;-80
2024/03/23 07:36:14;;;;;;;9.38;3.58;;;;;;;;;;6084564;23;20010;-79
2024/03/23 07:38:44;;;;;;;8.10;3.75;;;;;;;;;;6137275;23;20527;-79
2024/03/23 07:41:22;;;;;;;7.50;3.20;;;;;;;;;;6133452;23;20093;-83
2024/03/23 07:43:55;;;;;;;7.72;2.80;;;;;;;;;;6118270;23;20060;-84
2024/03/23 07:46:22;;;;;;;9.13;2.70;;;;;;;;;;6145043;23;20096;-83
2024/03/23 07:48:51;;;;;;;5.55;1.90;;;;;;;;;;6128912;23;20001;-83
2024/03/23 07:51:17;;;;;;;;;;;;;;;;;;6119946;23;20029;-83
2024/03/23 07:53:43;;;;;;;6.20;1.55;;;;;;;;;;6117010;23;19908;-83
2024/03/23 07:56:11;;;;;;;6.95;1.95;;;;;;;;;;6093639;23;20067;-85
2024/03/23 07:58:40;;;;;;;4.60;2.25;;;;;;;;;;6090814;23;20375;-83
2024/03/23 08:01:09;;;;;;;4.55;1.60;;;;;;;;;;6138536;23;20364;-83
2024/03/23 08:03:37;;;;;;;5.90;1.40;;;;;;;;;;6091078;23;20344;-83
2024/03/23 08:06:06;;;;;;;2.55;0.98;;;;;;;;;;6116149;23;20013;-84
2024/03/23 08:08:32;;;;;;;2.13;0.80;;;;;;;;;;6092292;23;20030;-84
2024/03/23 08:14:11;;;;;;;2.53;0.70;;;;;;;;;;6165818;23;20012;-83
2024/03/23 08:16:41;;;;;;;2.40;0.80;;;;;;;;;;6097070;23;20009;-82
2024/03/23 08:19:31;;;;;;;4.93;1.15;;;;;;;;;;6102318;23;20040;-83
2024/03/23 08:22:03;;;;;;;2.33;0.73;;;;;;;;;;6123150;23;20037;-83
2024/03/23 08:24:35;;;;;;;2.67;0.80;;;;;;;;;;6096841;23;20074;-83
2024/03/23 08:27:04;;;;;;;2.75;0.95;;;;;;;;;;6146029;23;20045;-84
2024/03/23 08:29:33;;;;;;;;;;;;;;;;;;6071932;23;20014;-83
2024/03/23 08:32:01;;;;;;;;;;;;;;;;;;6096211;23;19928;-83
2024/03/23 08:34:29;;;;;;;4.35;0.90;;;;;;;;;;6127435;23;19924;-82
2024/03/23 08:37:21;;;;;;;2.97;1.02;;;;;;;;;;6124111;23;20012;-84
2024/03/23 08:39:47;;;;;;;4.93;1.08;;;;;;;;;;6098587;23;20036;-83
2024/03/23 08:42:24;;;;;;;3.88;1.00;;;;;;;;;;6103422;23;20005;-84
2024/03/23 08:44:50;;;;;;;1.75;0.55;;;;;;;;;;6102005;23;20024;-83
2024/03/23 08:47:22;;;;;;;2.92;0.70;;;;;;;;;;6102639;23;20020;-82
2024/03/23 08:49:54;;;;;;;1.70;0.60;;;;;;;;;;6103987;23;20029;-82
2024/03/23 08:52:28;;;;;;;4.88;1.80;;;;;;;;;;6104722;23;20032;-82
2024/03/23 08:55:07;;;;;;;3.78;0.80;;;;;;;;;;6148960;23;20348;-82
2024/03/23 08:57:44;;;;;;;3.78;1.25;;;;;;;;;;6121700;23;20016;-83
2024/03/23 09:00:30;;;;;;;1.83;0.50;;;;;;;;;;6123170;23;20013;-82
2024/03/23 09:02:58;;;;;;;2.00;0.80;;;;;;;;;;6100241;23;20006;-83
2024/03/23 09:05:30;;;;;;;2.05;0.80;;;;;;;;;;6123938;23;20009;-84
2024/03/23 09:08:02;;;;;;;5.85;0.95;;;;;;;;;;6123119;23;20005;-84
2024/03/23 09:10:28;;;;;;;3.53;0.98;;;;;;;;;;6123889;23;20013;-83
2024/03/23 09:13:03;;;;;;;3.13;0.80;;;;;;;;;;6100290;23;20001;-84
2024/03/23 09:15:29;;;;;;;2.47;1.00;;;;;;;;;;6150262;23;20005;-84
2024/03/23 09:17:59;;;;;;;2.28;0.93;;;;;;;;;;6102580;23;20013;-84
2024/03/23 09:20:34;;;;;;;3.83;1.00;;;;;;;;;;6127502;23;19997;-84
2024/03/23 09:23:04;;;;;;;3.40;0.68;;;;;;;;;;6126246;23;20552;-83
2024/03/23 09:25:42;;;;;;;3.75;1.00;;;;;;;;;;6102051;23;20367;-84
2024/03/23 09:28:08;;;;;;;2.10;0.70;;;;;;;;;;6121879;23;20032;-82
2024/03/23 09:30:35;;;;;;;4.85;0.80;;;;;;;;;;6076181;23;20029;-82
2024/03/23 09:33:04;;;;;;;3.70;0.70;;;;;;;;;;6150302;23;20005;-83
2024/03/23 09:35:31;;;;;;;2.92;0.95;;;;;;;;;;6099029;23;20037;-84
2024/03/23 09:38:07;;;;;;;1.35;0.57;;;;;;;;;;6123024;23;20554;-84
2024/03/23 09:40:37;;;;;;;;;;;;;;;;;;6148931;23;20013;-82
2024/03/23 09:43:14;;;;;;;2.28;1.02;;;;;;;;;;6101323;23;19920;-84
2024/03/23 09:45:51;;;;;;;1.67;0.70;;;;;;;;;;6141514;23;20036;-84
2024/03/23 09:48:46;;;;;;;3.50;0.80;;;;;;;;;;6126644;23;20017;-83
2024/03/23 09:51:15;;;;;;;2.13;0.88;;;;;;;;;;6065165;23;20010;-83
2024/03/23 09:54:02;;;;;;;1.95;0.68;;;;;;;;;;6065528;23;20030;-84
2024/03/23 09:56:35;;;;;;;3.08;1.20;;;;;;;;;;6043320;23;20011;-83
2024/03/23 09:59:06;;;;;;;2.72;0.80;;;;;;;;;;6067984;23;20010;-83
2024/03/23 10:01:32;;;;;;;3.40;1.05;;;;;;;;;;6019653;23;20049;-82
2024/03/23 10:04:03;;;;;;;1.65;0.80;;;;;;;;;;6065640;23;20010;-82
2024/03/23 10:06:34;;;;;;;1.65;0.82;;;;;;;;;;6060212;23;20022;-83
2024/03/23 10:09:17;;;;;;;3.97;1.20;;;;;;;;;;6063642;23;20089;-82
2024/03/23 10:12:07;;;;;;;2.30;0.90;;;;;;;;;;6040038;23;20070;-82
2024/03/23 10:14:36;;;;;;;3.22;0.98;;;;;;;;;;6063958;23;20087;-82
2024/03/23 10:17:32;;;;;;;2.22;0.70;;;;;;;;;;6055289;23;20015;-82
2024/03/23 10:20:17;;;;;;;4.55;0.75;;;;;;;;;;6067451;23;20018;-84
2024/03/23 10:23:04;;;;;;;6.07;0.88;;;;;;;;;;6135719;23;20017;-82
2024/03/23 10:25:33;;;;;;;2.25;0.70;;;;;;;;;;6095477;23;20116;-82
2024/03/23 10:28:04;;;;;;;1.50;0.70;;;;;;;;;;6096020;23;20009;-82
2024/03/23 10:30:42;;;;;;;2.28;0.80;;;;;;;;;;6121581;23;20005;-82
2024/03/23 10:33:08;;;;;;;;;;;;;;;;;;6094313;23;20009;-82
2024/03/23 10:35:44;;;;;;;1.95;0.85;;;;;;;;;;6140846;23;20242;-83
2024/03/23 10:38:13;;;;;;;1.55;0.85;;;;;;;;;;6120492;23;20010;-83
2024/03/23 10:41:33;;;;;;;3.42;1.63;;;;;;;;;;6162764;23;20037;-81
2024/03/23 11:38:34;;;;;;;10.18;1.85;;;;;;;;;;6159721;23;20001;-82
2024/03/23 11:44:55;;;;;;;6.85;1.40;;;;;;;;;;6165001;23;20001;-83
2024/03/23 11:47:35;;;;;;;8.07;1.20;;;;;;;;;;6184900;23;20084;-83
2024/03/23 11:50:28;;;;;;;7.78;1.20;;;;;;;;;;6162161;23;20386;-82
2024/03/23 11:53:12;;;;;;;3.60;1.42;;;;;;;;;;6114071;23;20020;-82
2024/03/23 11:55:53;;;;;;;8.98;1.42;;;;;;;;;;6128285;23;20010;-82
2024/03/23 11:58:24;;;;;;;6.60;1.40;;;;;;;;;;6100936;23;20012;-83
2024/03/23 12:00:52;;;;;;;4.07;1.20;;;;;;;;;;6096032;23;20343;-83
2024/03/23 12:03:28;;;;;;;6.28;1.10;;;;;;;;;;6121764;23;20001;-82
2024/03/23 12:06:00;;;;;;;8.35;1.40;;;;;;;;;;6119741;23;20009;-83
2024/03/23 12:08:32;;;;;;;9.40;1.27;;;;;;;;;;6096291;23;20482;-83
2024/03/23 12:11:11;;;;;;;4.07;0.85;;;;;;;;;;6094906;23;20021;-84
2024/03/23 12:13:44;;;;;;;4.38;1.38;;;;;;;;;;6119124;23;20005;-83
2024/03/23 12:16:27;;;;;;;5.28;1.10;;;;;;;;;;6119985;23;20002;-84
2024/03/23 12:19:05;;;;;;;6.97;1.10;;;;;;;;;;6118834;23;20005;-83
2024/03/23 12:21:34;;;;;;;4.05;0.98;;;;;;;;;;6120110;23;20001;-83
2024/03/23 12:24:03;;;;;;;;;;;;;;;;;;6099209;23;20005;-82
2024/03/23 12:26:34;;;;;;;3.92;0.93;;;;;;;;;;6095605;23;19996;-83
2024/03/23 12:29:02;;;;;;;7.72;1.27;;;;;;;;;;6094801;23;20006;-83
2024/03/23 12:31:31;;;;;;;6.50;0.95;;;;;;;;;;6117018;23;19998;-82
2024/03/23 12:33:57;;;;;;;3.80;1.30;;;;;;;;;;6135437;23;20322;-84
2024/03/23 12:36:35;;;;;;;4.13;0.80;;;;;;;;;;6142902;23;20447;-84
2024/03/23 12:39:01;;;;;;;6.55;1.00;;;;;;;;;;6119340;23;20016;-83
2024/03/23 12:41:33;;;;;;;7.35;1.25;;;;;;;;;;6119387;23;20013;-83
2024/03/23 12:44:04;;;;;;;4.10;1.00;;;;;;;;;;6094905;23;20006;-83
2024/03/23 12:46:32;;;;;;;4.80;1.23;;;;;;;;;;6118731;23;20020;-84
2024/03/23 12:49:05;;;;;;;5.65;1.38;;;;;;;;;;6102965;23;20033;-83
2024/03/23 12:51:34;;;;;;;4.18;0.98;;;;;;;;;;6097704;23;20006;-84
2024/03/23 12:54:04;;;;;;;4.43;1.10;;;;;;;;;;6120136;23;20009;-84
2024/03/23 12:56:33;;;;;;;3.30;1.13;;;;;;;;;;6121619;23;20009;-83
2024/03/23 12:59:07;;;;;;;5.82;1.40;;;;;;;;;;6100755;23;20024;-82
2024/03/23 13:01:37;;;;;;;3.47;1.10;;;;;;;;;;6122147;23;20073;-81
2024/03/23 13:04:10;;;;;;;4.07;1.42;;;;;;;;;;6122207;23;20033;-82
2024/03/23 13:06:36;;;;;;;;;;;;;;;;;;6122395;23;20065;-82
2024/03/23 13:09:03;;;;;;;6.40;2.08;;;;;;;;;;6098500;23;19916;-83
2024/03/23 13:11:33;;;;;;;11.77;1.75;;;;;;;;;;6076263;23;20025;-83
2024/03/23 13:14:04;;;;;;;7.25;2.28;;;;;;;;;;6100201;23;20001;-83
2024/03/23 13:16:32;;;;;;;5.97;1.80;;;;;;;;;;6101198;23;20029;-82
2024/03/23 13:19:03;;;;;;;4.95;2.00;;;;;;;;;;6103440;23;20013;-83
2024/03/23 13:21:34;;;;;;;5.75;1.75;;;;;;;;;;6127441;23;20002;-82
2024/03/23 13:24:04;;;;;;;4.10;1.63;;;;;;;;;;6105241;23;20010;-81
2024/03/23 13:26:34;;;;;;;4.90;1.85;;;;;;;;;;6103328;23;20018;-82
2024/03/23 13:29:01;;;;;;;7.45;1.77;;;;;;;;;;6128131;23;20029;-82
2024/03/23 13:31:34;;;;;;;11.23;1.90;;;;;;;;;;6107160;23;20069;-83
2024/03/23 13:34:03;;;;;;;5.57;1.80;;;;;;;;;;6103172;23;20040;-81
2024/03/23 13:36:48;;;;;;;6.07;1.90;;;;;;;;;;6096706;23;20017;-83
2024/03/23 13:39:22;;;;;;;9.38;2.38;;;;;;;;;;6096200;23;20052;-83
2024/03/23 13:42:08;;;;;;;5.57;1.98;;;;;;;;;;6093984;23;20009;-82
2024/03/23 13:44:41;;;;;;;10.50;2.22;;;;;;;;;;6114466;23;20016;-83
2024/03/23 13:47:14;;;;;;;8.48;2.10;;;;;;;;;;6091726;23;20466;-82
2024/03/23 13:50:20;;;;;;;8.25;2.20;;;;;;;;;;6087316;23;20018;-83
2024/03/23 13:52:53;;;;;;;8.30;2.25;;;;;;;;;;6084885;23;20026;-82
2024/03/23 13:55:30;;;;;;;9.93;2.72;;;;;;;;;;6111967;23;20077;-82
2024/03/23 13:58:12;;;;;;;5.78;2.20;;;;;;;;;;6148013;23;20005;-84
2024/03/23 14:00:38;;;;;;;12.48;2.50;;;;;;;;;;6115945;23;20008;-83
2024/03/23 14:03:06;;;;;;;6.82;2.88;;;;;;;;;;6117423;23;20040;-83
2024/03/23 14:05:34;;;;;;;8.43;2.80;;;;;;;;;;6119572;23;20029;-83
2024/03/23 14:08:22;;;;;;;7.82;3.10;;;;;;;;;;6137718;23;20044;-85
2024/03/23 14:10:48;;;;;;;7.80;2.92;;;;;;;;;;6068955;23;20014;-82
2024/03/23 14:20:06;;;;;;;9.38;3.70;;;;;;;;;;6117741;23;20014;-83
2024/03/23 14:23:07;;;;;;;7.30;3.13;;;;;;;;;;6137035;23;20014;-84
2024/03/23 14:26:08;;;;;;;6.22;3.08;;;;;;;;;;6108425;23;20400;-85
2024/03/23 14:28:49;;;;;;;8.93;4.13;;;;;;;;;;6132302;23;20038;-84
2024/03/23 14:31:25;;;;;;;8.15;3.42;;;;;;;;;;6084655;23;20014;-82
2024/03/23 14:33:53;;;;;;;11.02;3.67;;;;;;;;;;6084334;23;20010;-82
2024/03/23 14:36:24;;;;;;;9.10;3.60;;;;;;;;;;6062887;23;20018;-81
2024/03/23 14:38:53;;;;;;;8.70;2.38;;;;;;;;;;6088106;23;20295;-81
2024/03/23 14:41:45;;;;;;;6.50;1.90;;;;;;;;;;6082928;23;20092;-83
2024/03/23 14:44:18;;;;;;;4.75;2.10;;;;;;;;;;6107641;23;20294;-81
2024/03/23 14:46:45;;;;;;;4.47;2.63;;;;;;;;;;6083287;23;20014;-81
2024/03/23 14:49:20;;;;;;;5.40;2.17;;;;;;;;;;6082465;23;20021;-82
2024/03/23 14:51:57;;;;;;;4.00;2.00;;;;;;;;;;6082896;23;20010;-82
2024/03/23 14:54:45;;;;;;;7.75;2.60;;;;;;;;;;6087073;23;20459;-81
2024/03/23 14:57:34;;;;;;;5.75;2.35;;;;;;;;;;6107581;23;20037;-82
2024/03/23 15:00:10;;;;;;;6.45;2.40;;;;;;;;;;6083931;23;20015;-81
2024/03/23 15:02:45;;;;;;;7.90;2.50;;;;;;;;;;6084680;23;20017;-81
2024/03/23 15:05:37;;;;;;;7.90;2.58;;;;;;;;;;6091837;23;20014;-82
2024/03/23 15:08:08;;;;;;;7.63;2.97;;;;;;;;;;6111645;23;20038;-82
2024/03/23 15:10:45;;;;;;;6.57;3.13;;;;;;;;;;6089077;23;20011;-83
2024/03/23 15:13:24;;;;;;;9.57;2.70;;;;;;;;;;6091883;23;20002;-80
2024/03/23 15:15:53;;;;;;;7.25;2.38;;;;;;;;;;6090924;23;20038;-81
2024/03/23 15:18:26;;;;;;;8.23;2.40;;;;;;;;;;6090048;23;20030;-81
2024/03/23 15:20:53;;;;;;;8.20;2.92;;;;;;;;;;6090231;23;20014;-81
2024/03/23 15:23:18;;;;;;;9.48;2.80;;;;;;;;;;6088644;23;20026;-80
2024/03/23 15:25:54;;;;;;;3.08;1.90;;;;;;;;;;6066917;23;20025;-80
2024/03/23 15:28:22;;;;;;;4.72;1.52;;;;;;;;;;6110920;23;20078;-80
2024/03/23 15:30:47;;;;;;;6.28;1.92;;;;;;;;;;6086841;23;20029;-80
2024/03/23 15:33:13;;;;;;;3.95;1.80;;;;;;;;;;6087515;23;20017;-81
2024/03/23 15:35:40;;;;;;;5.15;1.85;;;;;;;;;;6087065;23;20057;-80
2024/03/23 15:38:09;;;;;;;8.55;1.98;;;;;;;;;;6086989;23;20015;-81
2024/03/23 15:40:35;;;;;;;3.60;1.80;;;;;;;;;;6085641;23;20038;-80
2024/03/23 15:43:03;;;;;;;5.07;2.42;;;;;;;;;;6082402;23;20011;-81
2024/03/23 15:45:30;;;;;;;3.47;1.63;;;;;;;;;;6107791;23;20010;-82
2024/03/23 15:47:56;;;;;;;8.75;2.03;;;;;;;;;;6081744;23;20014;-80
2024/03/23 15:50:23;;;;;;;5.47;1.85;;;;;;;;;;6083098;23;20007;-80
2024/03/23 15:52:52;;;;;;;7.00;1.98;;;;;;;;;;6081462;23;20336;-81
2024/03/23 15:55:18;;;;;;;6.53;2.28;;;;;;;;;;6106385;23;20078;-81
2024/03/23 15:57:43;;;;;;;6.45;1.95;;;;;;;;;;6104853;23;20010;-81
2024/03/23 16:00:13;;;;;;;5.20;2.70;;;;;;;;;;6086765;23;20032;-81
2024/03/23 16:02:39;;;;;;;5.38;2.10;;;;;;;;;;6066131;23;20018;-80
2024/03/23 16:09:56;;;;;;;8.32;3.30;;;;;;;;;;6016292;23;20049;-81